sensor_id;sensor_type;location;lat;lon;timestamp;pressure;altitude;pressure_sealevel;temperature;humidity
60345;BME280;46188;52.324;8.032;2023-10-19T05:01:48;98296.75;;;8.03;100.00
60345;BME280;46188;52.324;8.032;2023-10-19T05:04:15;98288.47;;;8.31;100.00
60345;BME280;46188;52.324;8.032;2023-10-19T05:06:42;98286.31;;;8.61;100.00
60345;BME280;46188;52.324;8.032;2023-10-19T05:09:07;98292.00;;;8.86;100.00
60345;BME280;46188;52.324;8.032;2023-10-19T05:11:32;98277.84;;;8.95;100.00
60345;BME280;46188;52.324;8.032;2023-10-19T05:13:58;98287.28;;;9.05;100.00
60345;BME280;46188;52.324;8.032;2023-10-19T05:16:23;98280.16;;;9.12;100.00
60345;BME280;46188;52.324;8.032;2023-10-19T05:18:48;98279.09;;;9.22;100.00
60345;BME280;46188;52.324;8.032;2023-10-19T05:21:13;98280.69;;;9.31;100.00
60345;BME280;46188;52.324;8.032;2023-10-19T05:23:39;98286.72;;;9.36;100.00
60345;BME280;46188;52.324;8.032;2023-10-19T05:26:04;98285.72;;;9.41;100.00
60345;BME280;46188;52.324;8.032;2023-10-19T05:28:31;98281.34;;;9.42;100.00
60345;BME280;46188;52.324;8.032;2023-10-19T05:30:57;98275.16;;;9.45;100.00
60345;BME280;46188;52.324;8.032;2023-10-19T05:33:24;98279.38;;;9.53;100.00
60345;BME280;46188;52.324;8.032;2023-10-19T05:35:51;98278.44;;;9.56;100.00
60345;BME280;46188;52.324;8.032;2023-10-19T05:38:17;98280.13;;;9.60;100.00
60345;BME280;46188;52.324;8.032;2023-10-19T05:40:44;98281.81;;;9.63;100.00
60345;BME280;46188;52.324;8.032;2023-10-19T05:43:10;98283.63;;;9.59;100.00
60345;BME280;46188;52.324;8.032;2023-10-19T05:45:35;98286.19;;;9.64;100.00
60345;BME280;46188;52.324;8.032;2023-10-19T05:48:04;98288.81;;;9.64;100.00
60345;BME280;46188;52.324;8.032;2023-10-19T05:50:31;98294.00;;;9.67;100.00
60345;BME280;46188;52.324;8.032;2023-10-19T05:52:56;98286.84;;;9.73;100.00
60345;BME280;46188;52.324;8.032;2023-10-19T05:55:22;98294.81;;;9.70;100.00
60345;BME280;46188;52.324;8.032;2023-10-19T05:57:47;98298.28;;;9.72;100.00
60345;BME280;46188;52.324;8.032;2023-10-19T06:00:13;98295.59;;;9.75;100.00
60345;BME280;46188;52.324;8.032;2023-10-19T06:02:43;98295.63;;;9.74;100.00
60345;BME280;46188;52.324;8.032;2023-10-19T06:05:15;98304.41;;;9.71;100.00
60345;BME280;46188;52.324;8.032;2023-10-19T06:07:50;98300.03;;;9.72;100.00
60345;BME280;46188;52.324;8.032;2023-10-19T06:10:18;98297.34;;;9.75;100.00
60345;BME280;46188;52.324;8.032;2023-10-19T06:12:45;98302.59;;;9.76;100.00
60345;BME280;46188;52.324;8.032;2023-10-19T06:15:12;98307.03;;;9.73;100.00
60345;BME280;46188;52.324;8.032;2023-10-19T06:17:41;98315.69;;;9.78;100.00
60345;BME280;46188;52.324;8.032;2023-10-19T06:20:10;98308.50;;;9.86;100.00
60345;BME280;46188;52.324;8.032;2023-10-19T06:22:50;98314.69;;;9.85;100.00
60345;BME280;46188;52.324;8.032;2023-10-19T06:25:17;98313.75;;;9.86;100.00
60345;BME280;46188;52.324;8.032;2023-10-19T06:27:44;98307.66;;;9.86;100.00
60345;BME280;46188;52.324;8.032;2023-10-19T06:30:10;98312.88;;;9.87;100.00
60345;BME280;46188;52.324;8.032;2023-10-19T06:32:36;98312.00;;;9.88;100.00
60345;BME280;46188;52.324;8.032;2023-10-19T06:35:02;98310.16;;;9.92;100.00
60345;BME280;46188;52.324;8.032;2023-10-19T06:37:28;98308.31;;;9.95;100.00
60345;BME280;46188;52.324;8.032;2023-10-19T06:39:53;98302.09;;;10.00;100.00
60345;BME280;46188;52.324;8.032;2023-10-19T06:42:18;98301.94;;;10.06;100.00
60345;BME280;46188;52.324;8.032;2023-10-19T06:44:44;98301.03;;;10.08;100.00
60345;BME280;46188;52.324;8.032;2023-10-19T06:47:09;98308.94;;;10.08;100.00
60345;BME280;46188;52.324;8.032;2023-10-19T06:49:35;98315.84;;;10.12;100.00
60345;BME280;46188;52.324;8.032;2023-10-19T06:52:00;98309.66;;;10.15;100.00
60345;BME280;46188;52.324;8.032;2023-10-19T06:54:26;98319.22;;;10.19;100.00
60345;BME280;46188;52.324;8.032;2023-10-19T06:56:53;98316.56;;;10.19;100.00
60345;BME280;46188;52.324;8.032;2023-10-19T06:59:18;98330.66;;;10.18;100.00
60345;BME280;46188;52.324;8.032;2023-10-19T07:01:43;98329.91;;;10.13;100.00
60345;BME280;46188;52.324;8.032;2023-10-19T07:04:09;98323.63;;;10.19;100.00
60345;BME280;46188;52.324;8.032;2023-10-19T07:06:34;98321.78;;;10.22;100.00
60345;BME280;46188;52.324;8.032;2023-10-19T07:09:00;98339.47;;;10.15;100.00
60345;BME280;46188;52.324;8.032;2023-10-19T07:11:27;98328.88;;;10.19;100.00
60345;BME280;46188;52.324;8.032;2023-10-19T07:13:53;98326.06;;;10.28;100.00
60345;BME280;46188;52.324;8.032;2023-10-19T07:16:18;98325.97;;;10.31;100.00
60345;BME280;46188;52.324;8.032;2023-10-19T07:18:45;98322.50;;;10.29;100.00
60345;BME280;46188;52.324;8.032;2023-10-19T07:21:10;98332.09;;;10.34;100.00
60345;BME280;46188;52.324;8.032;2023-10-19T07:23:37;98327.69;;;10.35;100.00
60345;BME280;46188;52.324;8.032;2023-10-19T07:26:05;98331.13;;;10.37;100.00
60345;BME280;46188;52.324;8.032;2023-10-19T07:28:32;98335.50;;;10.38;100.00
60345;BME280;46188;52.324;8.032;2023-10-19T07:30:57;98325.81;;;10.40;100.00
60345;BME280;46188;52.324;8.032;2023-10-19T07:33:24;98324.94;;;10.40;100.00
60345;BME280;46188;52.324;8.032;2023-10-19T07:35:52;98324.78;;;10.46;100.00
60345;BME280;46188;52.324;8.032;2023-10-19T07:38:23;98337.75;;;10.55;100.00
60345;BME280;46188;52.324;8.032;2023-10-19T07:40:49;98337.63;;;10.61;100.00
60345;BME280;46188;52.324;8.032;2023-10-19T07:43:14;98338.41;;;10.65;100.00
60345;BME280;46188;52.324;8.032;2023-10-19T07:45:39;98339.28;;;10.64;100.00
60345;BME280;46188;52.324;8.032;2023-10-19T07:48:05;98340.97;;;10.68;100.00
60345;BME280;46188;52.324;8.032;2023-10-19T07:50:32;98338.34;;;10.68;100.00
60345;BME280;46188;52.324;8.032;2023-10-19T07:52:58;98337.34;;;10.72;100.00
60345;BME280;46188;52.324;8.032;2023-10-19T07:55:23;98339.97;;;10.72;100.00
60345;BME280;46188;52.324;8.032;2023-10-19T07:57:49;98338.06;;;10.79;100.00
60345;BME280;46188;52.324;8.032;2023-10-19T08:00:16;98330.91;;;10.84;100.00
60345;BME280;46188;52.324;8.032;2023-10-19T08:02:42;98330.03;;;10.85;100.00
60345;BME280;46188;52.324;8.032;2023-10-19T08:05:10;98328.16;;;10.88;100.00
60345;BME280;46188;52.324;8.032;2023-10-19T08:07:37;98327.19;;;10.93;100.00
60345;BME280;46188;52.324;8.032;2023-10-19T08:10:05;98325.34;;;10.96;100.00
60345;BME280;46188;52.324;8.032;2023-10-19T08:12:31;98333.19;;;10.99;100.00
60345;BME280;46188;52.324;8.032;2023-10-19T08:14:57;98335.78;;;11.01;100.00
60345;BME280;46188;52.324;8.032;2023-10-19T08:17:23;98334.00;;;11.01;100.00
60345;BME280;46188;52.324;8.032;2023-10-19T08:19:48;98333.94;;;11.04;100.00
60345;BME280;46188;52.324;8.032;2023-10-19T08:22:14;98335.59;;;11.07;100.00
60345;BME280;46188;52.324;8.032;2023-10-19T08:24:40;98341.81;;;11.06;100.00
60345;BME280;46188;52.324;8.032;2023-10-19T08:27:08;98342.59;;;11.10;100.00
60345;BME280;46188;52.324;8.032;2023-10-19T08:29:38;98343.41;;;11.12;100.00
60345;BME280;46188;52.324;8.032;2023-10-19T08:32:04;98340.63;;;11.18;100.00
60345;BME280;46188;52.324;8.032;2023-10-19T08:34:34;98344.94;;;11.20;100.00
60345;BME280;46188;52.324;8.032;2023-10-19T08:37:01;98345.09;;;11.16;100.00
60345;BME280;46188;52.324;8.032;2023-10-19T08:39:27;98345.09;;;11.16;100.00
60345;BME280;46188;52.324;8.032;2023-10-19T08:41:52;98352.91;;;11.19;100.00
60345;BME280;46188;52.324;8.032;2023-10-19T08:44:20;98352.81;;;11.22;100.00
60345;BME280;46188;52.324;8.032;2023-10-19T08:46:45;98344.75;;;11.28;100.00
60345;BME280;46188;52.324;8.032;2023-10-19T08:49:13;98347.22;;;11.34;100.00
60345;BME280;46188;52.324;8.032;2023-10-19T08:51:39;98349.75;;;11.39;100.00
60345;BME280;46188;52.324;8.032;2023-10-19T08:54:05;98356.75;;;11.40;100.00
60345;BME280;46188;52.324;8.032;2023-10-19T08:56:32;98348.78;;;11.41;100.00
60345;BME280;46188;52.324;8.032;2023-10-19T08:59:01;98347.88;;;11.44;100.00
60345;BME280;46188;52.324;8.032;2023-10-19T09:01:28;98349.50;;;11.48;100.00
60345;BME280;46188;52.324;8.032;2023-10-19T09:03:57;98350.19;;;11.55;100.00
60345;BME280;46188;52.324;8.032;2023-10-19T09:06:22;98346.47;;;11.63;100.00
60345;BME280;46188;52.324;8.032;2023-10-19T09:08:47;98347.19;;;11.69;100.00
60345;BME280;46188;52.324;8.032;2023-10-19T09:11:14;98343.63;;;11.70;100.00
60345;BME280;46188;52.324;8.032;2023-10-19T09:13:50;98342.63;;;11.75;100.00
60345;BME280;46188;52.324;8.032;2023-10-19T09:16:17;98337.25;;;11.78;100.00
60345;BME280;46188;52.324;8.032;2023-10-19T09:18:42;98338.88;;;11.82;100.00
60345;BME280;46188;52.324;8.032;2023-10-19T09:21:08;98340.47;;;11.88;100.00
60345;BME280;46188;52.324;8.032;2023-10-19T09:23:37;98339.56;;;11.89;100.00
60345;BME280;46188;52.324;8.032;2023-10-19T09:26:03;98332.44;;;11.93;100.00
60345;BME280;46188;52.324;8.032;2023-10-19T09:28:28;98332.28;;;11.99;100.00
60345;BME280;46188;52.324;8.032;2023-10-19T09:30:55;98334.84;;;12.02;100.00
60345;BME280;46188;52.324;8.032;2023-10-19T09:33:21;98331.19;;;12.06;100.00
60345;BME280;46188;52.324;8.032;2023-10-19T09:35:50;98333.81;;;12.06;100.00
60345;BME280;46188;52.324;8.032;2023-10-19T09:38:21;98333.69;;;12.11;100.00
60345;BME280;46188;52.324;8.032;2023-10-19T09:40:50;98327.56;;;12.10;100.00
60345;BME280;46188;52.324;8.032;2023-10-19T09:43:21;98327.69;;;12.06;100.00
60345;BME280;46188;52.324;8.032;2023-10-19T09:45:51;98333.75;;;12.09;100.00
60345;BME280;46188;52.324;8.032;2023-10-19T09:48:19;98330.94;;;12.15;100.00
60345;BME280;46188;52.324;8.032;2023-10-19T09:50:51;98330.88;;;12.17;100.00
60345;BME280;46188;52.324;8.032;2023-10-19T09:53:22;98333.47;;;12.18;100.00
60345;BME280;46188;52.324;8.032;2023-10-19T09:55:49;98324.50;;;12.24;100.00
60345;BME280;46188;52.324;8.032;2023-10-19T09:58:17;98327.00;;;12.29;100.00
60345;BME280;46188;52.324;8.032;2023-10-19T10:00:45;98321.63;;;12.32;100.00
60345;BME280;46188;52.324;8.032;2023-10-19T10:03:42;98325.88;;;12.36;100.00
60345;BME280;46188;52.324;8.032;2023-10-19T10:06:08;98324.91;;;12.40;100.00
60345;BME280;46188;52.324;8.032;2023-10-19T10:08:35;98332.69;;;12.45;100.00
60345;BME280;46188;52.324;8.032;2023-10-19T10:11:17;98324.66;;;12.48;100.00
60345;BME280;46188;52.324;8.032;2023-10-19T10:13:43;98328.16;;;12.48;100.00
60345;BME280;46188;52.324;8.032;2023-10-19T10:16:13;98334.25;;;12.50;100.00
60345;BME280;46188;52.324;8.032;2023-10-19T10:18:40;98321.06;;;12.50;100.00
60345;BME280;46188;52.324;8.032;2023-10-19T10:21:06;98321.06;;;12.50;100.00
60345;BME280;46188;52.324;8.032;2023-10-19T10:23:42;98323.69;;;12.50;100.00
60345;BME280;46188;52.324;8.032;2023-10-19T10:26:18;98309.59;;;12.51;100.00
60345;BME280;46188;52.324;8.032;2023-10-19T10:28:50;98306.72;;;12.58;100.00
60345;BME280;46188;52.324;8.032;2023-10-19T10:31:35;98308.56;;;12.55;100.00
60345;BME280;46188;52.324;8.032;2023-10-19T10:34:08;98312.06;;;12.56;100.00
60345;BME280;46188;52.324;8.032;2023-10-19T10:36:57;98314.56;;;12.61;100.00
60345;BME280;46188;52.324;8.032;2023-10-19T10:39:25;98329.59;;;12.59;100.00
60345;BME280;46188;52.324;8.032;2023-10-19T10:41:58;98326.78;;;12.65;100.00
60345;BME280;46188;52.324;8.032;2023-10-19T10:44:45;98318.72;;;12.69;100.00
60345;BME280;46188;52.324;8.032;2023-10-19T10:47:15;98322.22;;;12.70;100.00
60345;BME280;46188;52.324;8.032;2023-10-19T10:49:56;98313.97;;;12.79;100.00
60345;BME280;46188;52.324;8.032;2023-10-19T10:54:58;98308.03;;;12.99;100.00
60345;BME280;46188;52.324;8.032;2023-10-19T10:57:30;98302.63;;;13.02;100.00
60345;BME280;46188;52.324;8.032;2023-10-19T11:00:14;98313.09;;;13.05;100.00
60345;BME280;46188;52.324;8.032;2023-10-19T11:02:44;98313.84;;;13.09;100.00
60345;BME280;46188;52.324;8.032;2023-10-19T11:05:12;98315.59;;;13.10;100.00
60345;BME280;46188;52.324;8.032;2023-10-19T11:07:39;98315.63;;;13.08;100.00
60345;BME280;46188;52.324;8.032;2023-10-19T11:10:05;98308.34;;;13.15;100.00
60345;BME280;46188;52.324;8.032;2023-10-19T11:12:31;98310.19;;;13.13;100.00
60345;BME280;46188;52.324;8.032;2023-10-19T11:14:58;98299.66;;;13.11;100.00
60345;BME280;46188;52.324;8.032;2023-10-19T11:17:42;98303.13;;;13.14;100.00
60345;BME280;46188;52.324;8.032;2023-10-19T11:20:08;98298.72;;;13.14;100.00
60345;BME280;46188;52.324;8.032;2023-10-19T11:22:50;98306.66;;;13.14;100.00
60345;BME280;46188;52.324;8.032;2023-10-19T11:25:21;98302.25;;;13.13;100.00
60345;BME280;46188;52.324;8.032;2023-10-19T11:27:46;98302.06;;;13.19;100.00
60345;BME280;46188;52.324;8.032;2023-10-19T11:30:13;98302.97;;;13.18;100.00
60345;BME280;46188;52.324;8.032;2023-10-19T11:32:39;98300.41;;;13.15;100.00
60345;BME280;46188;52.324;8.032;2023-10-19T11:35:05;98297.81;;;13.14;100.00
60345;BME280;46188;52.324;8.032;2023-10-19T11:37:45;98308.56;;;13.09;100.00
60345;BME280;46188;52.324;8.032;2023-10-19T11:40:11;98305.88;;;13.10;100.00
60345;BME280;46188;52.324;8.032;2023-10-19T11:42:36;98292.44;;;13.17;100.00
60345;BME280;46188;52.324;8.032;2023-10-19T11:45:02;98293.19;;;13.20;100.00
60345;BME280;46188;52.324;8.032;2023-10-19T11:47:28;98297.47;;;13.24;100.00
60345;BME280;46188;52.324;8.032;2023-10-19T11:49:53;98303.88;;;13.17;100.00
60345;BME280;46188;52.324;8.032;2023-10-19T11:52:19;98296.78;;;13.19;100.00
60345;BME280;46188;52.324;8.032;2023-10-19T11:54:44;98294.78;;;13.26;100.00
60345;BME280;46188;52.324;8.032;2023-10-19T11:57:09;98292.94;;;13.28;100.00
60345;BME280;46188;52.324;8.032;2023-10-19T11:59:35;98290.34;;;13.26;100.00
60345;BME280;46188;52.324;8.032;2023-10-19T12:02:00;98296.44;;;13.28;100.00
60345;BME280;46188;52.324;8.032;2023-10-19T12:04:28;98293.78;;;13.28;100.00
60345;BME280;46188;52.324;8.032;2023-10-19T12:06:54;98299.22;;;13.24;100.00
60345;BME280;46188;52.324;8.032;2023-10-19T12:09:20;98292.97;;;13.26;100.00
60345;BME280;46188;52.324;8.032;2023-10-19T12:11:49;98293.94;;;13.24;100.00
60345;BME280;46188;52.324;8.032;2023-10-19T12:14:15;98289.47;;;13.26;100.00
60345;BME280;46188;52.324;8.032;2023-10-19T12:16:41;98282.31;;;13.29;100.00
60345;BME280;46188;52.324;8.032;2023-10-19T12:19:06;98277.81;;;13.32;100.00
60345;BME280;46188;52.324;8.032;2023-10-19T12:21:33;98282.25;;;13.31;100.00
60345;BME280;46188;52.324;8.032;2023-10-19T12:23:58;98282.31;;;13.29;100.00
60345;BME280;46188;52.324;8.032;2023-10-19T12:26:26;98284.09;;;13.29;100.00
60345;BME280;46188;52.324;8.032;2023-10-19T12:28:51;98283.19;;;13.28;100.00
60345;BME280;46188;52.324;8.032;2023-10-19T12:31:17;98287.28;;;13.39;100.00
60345;BME280;46188;52.324;8.032;2023-10-19T12:33:47;98285.06;;;13.52;100.00
60345;BME280;46188;52.324;8.032;2023-10-19T12:36:12;98285.50;;;13.64;100.00
60345;BME280;46188;52.324;8.032;2023-10-19T12:38:52;98285.91;;;13.77;100.00
60345;BME280;46188;52.324;8.032;2023-10-19T12:41:19;98280.09;;;13.91;100.00
60345;BME280;46188;52.324;8.032;2023-10-19T12:43:44;98273.41;;;14.05;100.00
60345;BME280;46188;52.324;8.032;2023-10-19T12:46:11;98268.84;;;14.08;100.00
60345;BME280;46188;52.324;8.032;2023-10-19T12:48:38;98276.63;;;14.13;100.00
60345;BME280;46188;52.324;8.032;2023-10-19T12:51:04;98276.38;;;14.19;100.00
60345;BME280;46188;52.324;8.032;2023-10-19T12:53:31;98257.59;;;14.25;100.00
60345;BME280;46188;52.324;8.032;2023-10-19T12:55:58;98266.28;;;14.29;100.00
60345;BME280;46188;52.324;8.032;2023-10-19T12:58:24;98265.56;;;14.25;100.00
60345;BME280;46188;52.324;8.032;2023-10-19T13:00:51;98263.06;;;14.20;100.00
60345;BME280;46188;52.324;8.032;2023-10-19T13:03:17;98258.75;;;14.18;100.00
60345;BME280;46188;52.324;8.032;2023-10-19T13:05:43;98255.53;;;14.10;100.00
60345;BME280;46188;52.324;8.032;2023-10-19T13:08:13;98250.44;;;14.05;100.00
60345;BME280;46188;52.324;8.032;2023-10-19T13:10:43;98251.28;;;14.06;100.00
60345;BME280;46188;52.324;8.032;2023-10-19T13:13:10;98258.28;;;14.07;100.00
60345;BME280;46188;52.324;8.032;2023-10-19T13:15:41;98251.28;;;14.06;100.00
60345;BME280;46188;52.324;8.032;2023-10-19T13:18:08;98253.94;;;14.06;100.00
60345;BME280;46188;52.324;8.032;2023-10-19T13:20:35;98242.53;;;14.03;100.00
60345;BME280;46188;52.324;8.032;2023-10-19T13:23:02;98246.09;;;14.02;100.00
60345;BME280;46188;52.324;8.032;2023-10-19T13:25:34;98250.78;;;13.96;100.00
60345;BME280;46188;52.324;8.032;2023-10-19T13:28:19;98247.56;;;13.88;100.00
60345;BME280;46188;52.324;8.032;2023-10-19T13:30:53;98249.75;;;13.76;100.00
60345;BME280;46188;52.324;8.032;2023-10-19T13:33:19;98238.34;;;13.74;100.00
60345;BME280;46188;52.324;8.032;2023-10-19T13:35:46;98227.34;;;13.61;100.00
60345;BME280;46188;52.324;8.032;2023-10-19T13:38:13;98234.81;;;13.50;100.00
60345;BME280;46188;52.324;8.032;2023-10-19T13:40:39;98239.16;;;13.53;100.00
60345;BME280;46188;52.324;8.032;2023-10-19T13:43:06;98235.50;;;13.55;100.00
60345;BME280;46188;52.324;8.032;2023-10-19T13:45:33;98239.22;;;13.51;100.00
60345;BME280;46188;52.324;8.032;2023-10-19T13:48:02;98247.22;;;13.50;100.00
60345;BME280;46188;52.324;8.032;2023-10-19T13:50:29;98237.41;;;13.52;100.00
60345;BME280;46188;52.324;8.032;2023-10-19T13:52:55;98234.72;;;13.53;100.00
60345;BME280;46188;52.324;8.032;2023-10-19T13:55:24;98239.06;;;13.56;100.00
60345;BME280;46188;52.324;8.032;2023-10-19T13:57:50;98244.50;;;13.51;100.00
60345;BME280;46188;52.324;8.032;2023-10-19T14:00:16;98237.72;;;13.44;100.00
60345;BME280;46188;52.324;8.032;2023-10-19T14:03:00;98239.44;;;13.45;100.00
60345;BME280;46188;52.324;8.032;2023-10-19T14:05:27;98241.22;;;13.44;100.00
60345;BME280;46188;52.324;8.032;2023-10-19T14:07:53;98240.63;;;13.36;100.00
60345;BME280;46188;52.324;8.032;2023-10-19T14:10:19;98236.34;;;13.32;100.00
60345;BME280;46188;52.324;8.032;2023-10-19T14:12:45;98235.03;;;13.19;100.00
60345;BME280;46188;52.324;8.032;2023-10-19T14:15:20;98224.44;;;13.19;100.00
60345;BME280;46188;52.324;8.032;2023-10-19T14:17:48;98227.94;;;13.21;100.00
60345;BME280;46188;52.324;8.032;2023-10-19T14:20:14;98226.94;;;13.23;100.00
60345;BME280;46188;52.324;8.032;2023-10-19T14:22:49;98232.97;;;13.27;100.00
60345;BME280;46188;52.324;8.032;2023-10-19T14:25:15;98235.19;;;13.16;100.00
60345;BME280;46188;52.324;8.032;2023-10-19T14:27:41;98237.22;;;13.07;100.00
60345;BME280;46188;52.324;8.032;2023-10-19T14:30:09;98237.09;;;13.10;100.00
60345;BME280;46188;52.324;8.032;2023-10-19T14:32:38;98228.16;;;13.15;100.00
60345;BME280;46188;52.324;8.032;2023-10-19T14:35:04;98219.72;;;13.03;100.00
60345;BME280;46188;52.324;8.032;2023-10-19T14:37:31;98218.75;;;13.06;100.00
60345;BME280;46188;52.324;8.032;2023-10-19T14:39:56;98207.28;;;13.05;100.00
60345;BME280;46188;52.324;8.032;2023-10-19T14:42:24;98203.00;;;13.03;100.00
60345;BME280;46188;52.324;8.032;2023-10-19T14:44:49;98189.72;;;13.04;100.00
60345;BME280;46188;52.324;8.032;2023-10-19T14:47:16;98192.53;;;13.00;100.00
60345;BME280;46188;52.324;8.032;2023-10-19T14:49:41;98193.44;;;12.99;100.00
60345;BME280;46188;52.324;8.032;2023-10-19T14:52:06;98181.25;;;12.95;100.00
60345;BME280;46188;52.324;8.032;2023-10-19T14:54:32;98189.13;;;12.96;100.00
60345;BME280;46188;52.324;8.032;2023-10-19T14:56:57;98194.22;;;13.01;100.00
60345;BME280;46188;52.324;8.032;2023-10-19T14:59:22;98209.13;;;13.03;100.00
60345;BME280;46188;52.324;8.032;2023-10-19T15:01:48;98211.78;;;13.03;100.00
60345;BME280;46188;52.324;8.032;2023-10-19T15:04:13;98205.75;;;13.00;100.00
60345;BME280;46188;52.324;8.032;2023-10-19T15:06:38;98213.84;;;12.95;100.00
60345;BME280;46188;52.324;8.032;2023-10-19T15:09:04;98212.97;;;12.95;100.00
60345;BME280;46188;52.324;8.032;2023-10-19T15:11:29;98214.88;;;12.91;100.00
60345;BME280;46188;52.324;8.032;2023-10-19T15:13:54;98212.09;;;12.94;100.00
60345;BME280;46188;52.324;8.032;2023-10-19T15:16:19;98207.16;;;12.85;100.00
60345;BME280;46188;52.324;8.032;2023-10-19T15:18:45;98222.41;;;12.77;100.00
60345;BME280;46188;52.324;8.032;2023-10-19T15:21:11;98220.66;;;12.76;100.00
60345;BME280;46188;52.324;8.032;2023-10-19T15:23:39;98216.38;;;12.73;100.00
60345;BME280;46188;52.324;8.032;2023-10-19T15:26:06;98211.03;;;12.74;100.00
60345;BME280;46188;52.324;8.032;2023-10-19T15:28:32;98207.59;;;12.71;100.00
60345;BME280;46188;52.324;8.032;2023-10-19T15:30:59;98199.81;;;12.68;100.00
60345;BME280;46188;52.324;8.032;2023-10-19T15:33:25;98193.69;;;12.66;100.00
60345;BME280;46188;52.324;8.032;2023-10-19T15:35:51;98190.97;;;12.67;100.00
60345;BME280;46188;52.324;8.032;2023-10-19T15:38:17;98194.66;;;12.63;100.00
60345;BME280;46188;52.324;8.032;2023-10-19T15:40:42;98196.44;;;12.63;100.00
60345;BME280;46188;52.324;8.032;2023-10-19T15:43:07;98195.75;;;12.56;100.00
60345;BME280;46188;52.324;8.032;2023-10-19T15:45:32;98186.31;;;12.49;100.00
60345;BME280;46188;52.324;8.032;2023-10-19T15:48:03;98182.06;;;12.45;100.00
60345;BME280;46188;52.324;8.032;2023-10-19T15:50:28;98186.88;;;12.32;100.00
60345;BME280;46188;52.324;8.032;2023-10-19T15:52:54;98178.88;;;12.35;100.00
60345;BME280;46188;52.324;8.032;2023-10-19T15:55:20;98178.66;;;12.41;100.00
60345;BME280;46188;52.324;8.032;2023-10-19T15:57:47;98176.38;;;12.30;100.00
60345;BME280;46188;52.324;8.032;2023-10-19T16:00:15;98177.09;;;12.35;100.00
60345;BME280;46188;52.324;8.032;2023-10-19T16:02:41;98171.03;;;12.32;100.00
60345;BME280;46188;52.324;8.032;2023-10-19T16:05:07;98170.47;;;12.22;100.00
60345;BME280;46188;52.324;8.032;2023-10-19T16:07:33;98168.97;;;12.15;100.00
60345;BME280;46188;52.324;8.032;2023-10-19T16:09:58;98169.97;;;12.11;100.00
60345;BME280;46188;52.324;8.032;2023-10-19T16:12:23;98166.41;;;12.12;100.00
60345;BME280;46188;52.324;8.032;2023-10-19T16:14:49;98169.38;;;12.01;100.00
60345;BME280;46188;52.324;8.032;2023-10-19T16:17:15;98174.56;;;12.04;100.00
60345;BME280;46188;52.324;8.032;2023-10-19T16:19:42;98169.38;;;12.01;100.00
60345;BME280;46188;52.324;8.032;2023-10-19T16:22:07;98177.25;;;12.03;100.00
60345;BME280;46188;52.324;8.032;2023-10-19T16:24:32;98179.19;;;11.97;100.00
60345;BME280;46188;52.324;8.032;2023-10-19T16:26:58;98178.28;;;11.98;100.00
60345;BME280;46188;52.324;8.032;2023-10-19T16:29:23;98171.34;;;11.94;100.00
60345;BME280;46188;52.324;8.032;2023-10-19T16:31:51;98166.34;;;11.85;100.00
60345;BME280;46188;52.324;8.032;2023-10-19T16:34:16;98168.19;;;11.81;100.00
60345;BME280;46188;52.324;8.032;2023-10-19T16:36:44;98169.13;;;11.80;100.00
60345;BME280;46188;52.324;8.032;2023-10-19T16:39:10;98164.75;;;11.79;100.00
60345;BME280;46188;52.324;8.032;2023-10-19T16:41:40;98167.53;;;11.75;100.00
60345;BME280;46188;52.324;8.032;2023-10-19T16:44:06;98163.88;;;11.79;100.00
60345;BME280;46188;52.324;8.032;2023-10-19T16:46:34;98164.78;;;11.78;100.00
60345;BME280;46188;52.324;8.032;2023-10-19T16:49:03;98167.69;;;11.70;100.00
60345;BME280;46188;52.324;8.032;2023-10-19T16:51:30;98164.38;;;11.63;100.00
60345;BME280;46188;52.324;8.032;2023-10-19T16:53:56;98164.41;;;11.62;100.00
60345;BME280;46188;52.324;8.032;2023-10-19T16:56:22;98168.72;;;11.64;100.00
60345;BME280;46188;52.324;8.032;2023-10-19T16:58:47;98168.84;;;11.60;100.00
60345;BME280;46188;52.324;8.032;2023-10-19T17:01:12;98173.41;;;11.55;100.00
60345;BME280;46188;52.324;8.032;2023-10-19T17:03:39;98169.56;;;11.35;100.00
60345;BME280;46188;52.324;8.032;2023-10-19T17:06:06;98169.38;;;11.43;100.00
60345;BME280;46188;52.324;8.032;2023-10-19T17:08:34;98167.81;;;11.36;100.00
60345;BME280;46188;52.324;8.032;2023-10-19T17:10:59;98164.31;;;11.35;100.00
60345;BME280;46188;52.324;8.032;2023-10-19T17:13:27;98173.41;;;11.25;100.00
60345;BME280;46188;52.324;8.032;2023-10-19T17:15:52;98166.41;;;11.24;100.00
60345;BME280;46188;52.324;8.032;2023-10-19T17:18:17;98165.34;;;11.30;100.00
60345;BME280;46188;52.324;8.032;2023-10-19T17:20:43;98176.28;;;11.17;100.00
60345;BME280;46188;52.324;8.032;2023-10-19T17:23:08;98170.31;;;11.11;100.00
60345;BME280;46188;52.324;8.032;2023-10-19T17:25:34;98177.66;;;10.99;100.00
60345;BME280;46188;52.324;8.032;2023-10-19T17:28:00;98174.09;;;11.00;100.00
60345;BME280;46188;52.324;8.032;2023-10-19T17:30:26;98170.50;;;11.03;100.00
60345;BME280;46188;52.324;8.032;2023-10-19T17:32:51;98167.19;;;10.96;100.00
60345;BME280;46188;52.324;8.032;2023-10-19T17:35:17;98170.91;;;10.89;100.00
60345;BME280;46188;52.324;8.032;2023-10-19T17:37:44;98161.28;;;10.86;100.00
60345;BME280;46188;52.324;8.032;2023-10-19T17:40:10;98156.84;;;10.88;100.00
60345;BME280;46188;52.324;8.032;2023-10-19T17:42:36;98161.25;;;10.88;100.00
60345;BME280;46188;52.324;8.032;2023-10-19T17:45:02;98156.84;;;10.88;100.00
60345;BME280;46188;52.324;8.032;2023-10-19T17:47:27;98156.13;;;10.82;100.00
60345;BME280;46188;52.324;8.032;2023-10-19T17:49:53;98164.06;;;10.82;100.00
60345;BME280;46188;52.324;8.032;2023-10-19T17:52:18;98162.22;;;10.84;100.00
60345;BME280;46188;52.324;8.032;2023-10-19T17:54:45;98152.72;;;10.78;100.00